Time;durP1;ratioP1;P1;durP2;ratioP2;P2;SDS_P1;SDS_P2;PMS_P1;PMS_P2;Temp;Humidity;BMP_temperature;BMP_pressure;BME280_temperature;BME280_humidity;BME280_pressure;Samples;Min_cycle;Max_cycle;Signal;HPM_P1;HPM_P2
2022/12/26 00:01:28;;;;;;;27.30;14.75;;;8.50;99.90;;;;;;5008445;28;20045;-56
2022/12/26 00:03:56;;;;;;;21.75;13.98;;;8.40;99.90;;;;;;5011209;28;20057;-55
2022/12/26 00:06:25;;;;;;;16.50;12.05;;;8.50;99.90;;;;;;5007887;28;20034;-56
2022/12/26 00:08:51;;;;;;;21.00;12.57;;;8.50;99.90;;;;;;5010538;28;20046;-56
2022/12/26 00:11:18;;;;;;;21.90;11.65;;;8.40;99.90;;;;;;5009916;28;20121;-56
2022/12/26 00:13:43;;;;;;;17.70;11.80;;;8.40;99.90;;;;;;5008489;28;20067;-55
2022/12/26 00:16:18;;;;;;;21.83;11.13;;;8.40;99.90;;;;;;5010414;28;20038;-56
2022/12/26 00:18:45;;;;;;;15.48;11.45;;;8.40;99.90;;;;;;5009362;28;20046;-56
2022/12/26 00:21:12;;;;;;;18.98;12.02;;;8.50;99.90;;;;;;5010268;28;20519;-56
2022/12/26 00:23:38;;;;;;;18.33;12.95;;;8.40;99.90;;;;;;5009335;28;20053;-55
2022/12/26 00:26:09;;;;;;;24.10;14.55;;;8.40;99.90;;;;;;5013294;28;20188;-56
2022/12/26 00:28:35;;;;;;;18.88;13.38;;;8.50;99.90;;;;;;4992012;28;20046;-56
2022/12/26 00:31:09;;;;;;;21.20;14.02;;;8.40;99.90;;;;;;4995606;28;20046;-55
2022/12/26 00:33:36;;;;;;;18.63;12.75;;;8.40;99.90;;;;;;5013415;28;20046;-56
2022/12/26 00:36:07;;;;;;;22.13;13.57;;;8.40;99.90;;;;;;5013680;28;20388;-55
2022/12/26 00:38:34;;;;;;;23.92;13.57;;;8.50;99.90;;;;;;5013066;28;20069;-55
2022/12/26 00:41:00;;;;;;;30.33;14.07;;;8.50;99.90;;;;;;5013769;28;20164;-55
2022/12/26 00:43:25;;;;;;;20.33;13.43;;;8.50;99.90;;;;;;5013762;28;22002;-56
2022/12/26 00:45:51;;;;;;;18.10;12.38;;;8.50;99.90;;;;;;4995539;28;20400;-51
2022/12/26 00:48:17;;;;;;;16.25;11.93;;;8.50;99.90;;;;;;5009494;28;20049;-52
2022/12/26 00:50:42;;;;;;;25.58;12.98;;;8.40;99.90;;;;;;5000162;28;20081;-55
2022/12/26 00:53:08;;;;;;;23.30;12.82;;;8.50;99.90;;;;;;5015054;28;20046;-53
2022/12/26 00:55:33;;;;;;;28.75;14.25;;;8.50;99.90;;;;;;5014677;28;20400;-55
2022/12/26 00:57:59;;;;;;;25.98;14.20;;;8.50;99.90;;;;;;5013491;28;20041;-55
2022/12/26 01:00:25;;;;;;;18.08;12.98;;;8.50;99.90;;;;;;5014319;28;20042;-53
2022/12/26 01:02:50;;;;;;;22.38;13.75;;;8.40;99.90;;;;;;5013828;28;20077;-54
2022/12/26 01:05:16;;;;;;;18.60;13.10;;;8.40;99.90;;;;;;5012801;28;20082;-54
2022/12/26 01:07:42;;;;;;;28.08;14.98;;;8.50;99.90;;;;;;5009647;28;20041;-55
2022/12/26 01:10:10;;;;;;;16.52;12.95;;;8.50;99.90;;;;;;4991650;28;20046;-55
2022/12/26 01:12:35;;;;;;;;;;;8.50;99.90;;;;;;5009749;28;20046;-52
2022/12/26 01:15:01;;;;;;;20.42;13.75;;;8.50;99.90;;;;;;5010170;28;19991;-55
2022/12/26 01:17:27;;;;;;;22.02;14.50;;;8.50;99.90;;;;;;5012768;28;20050;-55
2022/12/26 01:19:54;;;;;;;22.60;14.70;;;8.50;99.90;;;;;;5013190;28;20065;-56
2022/12/26 01:22:19;;;;;;;22.38;14.18;;;8.50;99.90;;;;;;5012032;28;20052;-55
2022/12/26 01:24:45;;;;;;;24.63;15.00;;;8.50;99.90;;;;;;5012325;28;20116;-55
2022/12/26 01:27:11;;;;;;;28.35;15.77;;;8.50;99.90;;;;;;5013249;28;20116;-52
2022/12/26 01:29:36;;;;;;;30.08;15.85;;;8.50;99.90;;;;;;5013401;28;20561;-57
2022/12/26 01:32:02;;;;;;;30.70;16.33;;;8.50;99.90;;;;;;5012758;28;20046;-56
2022/12/26 01:34:28;;;;;;;31.02;17.13;;;8.50;99.90;;;;;;5012437;28;20046;-54
2022/12/26 01:36:54;;;;;;;26.63;17.02;;;8.50;99.90;;;;;;5012325;28;20046;-54
2022/12/26 01:39:20;;;;;;;29.85;18.15;;;8.50;99.90;;;;;;5012438;28;20523;-56
2022/12/26 01:41:46;;;;;;;27.02;16.65;;;8.60;99.90;;;;;;5013410;28;20046;-56
2022/12/26 01:44:50;;;;;;;34.03;19.13;;;8.50;99.90;;;;;;5013298;28;20041;-57
2022/12/26 01:47:16;;;;;;;38.67;19.50;;;8.60;99.90;;;;;;5011287;28;20611;-57
2022/12/26 01:49:46;;;;;;;34.22;20.35;;;8.50;99.90;;;;;;5012927;28;20460;-56
2022/12/26 01:52:18;;;;;;;37.97;20.67;;;8.50;99.90;;;;;;5013127;28;20049;-55
2022/12/26 01:54:48;;;;;;;33.67;20.58;;;8.60;99.90;;;;;;4994662;28;20500;-53
2022/12/26 01:57:28;;;;;;;28.70;19.95;;;8.50;99.90;;;;;;4994111;28;20103;-56
2022/12/26 01:59:56;;;;;;;36.10;21.35;;;8.50;99.90;;;;;;4992759;28;20053;-55
2022/12/26 02:02:26;;;;;;;39.53;22.23;;;8.50;99.90;;;;;;5010624;28;20091;-56
2022/12/26 02:07:40;;;;;;;26.33;18.77;;;8.50;99.90;;;;;;5011212;28;20125;-57
2022/12/26 02:10:11;;;;;;;28.80;19.92;;;8.50;99.90;;;;;;5011396;28;20034;-55
2022/12/26 02:12:37;;;;;;;40.20;20.67;;;8.50;99.90;;;;;;5012417;28;20444;-56
2022/12/26 02:15:08;;;;;;;40.15;22.52;;;8.50;99.90;;;;;;5011700;28;20045;-56
2022/12/26 02:17:35;;;;;;;40.85;22.67;;;8.50;99.90;;;;;;5007810;28;20057;-56
2022/12/26 02:20:24;;;;;;;39.53;22.20;;;8.60;99.90;;;;;;5005220;28;20060;-57
2022/12/26 02:23:18;;;;;;;38.58;21.77;;;8.60;99.90;;;;;;4991006;28;20252;-57
2022/12/26 02:26:02;;;;;;;37.25;22.08;;;8.60;99.90;;;;;;5011539;28;20053;-57
2022/12/26 02:28:46;;;;;;;50.80;22.73;;;8.60;99.90;;;;;;4970733;28;20049;-56
2022/12/26 02:31:49;;;;;;;35.53;22.02;;;8.60;99.90;;;;;;4993011;28;20112;-57
2022/12/26 02:34:21;;;;;;;39.75;21.83;;;8.60;99.90;;;;;;4995830;28;20057;-56
2022/12/26 02:37:15;;;;;;;40.00;22.27;;;8.60;99.90;;;;;;5016302;28;20050;-56
2022/12/26 02:40:11;;;;;;;45.92;24.27;;;8.60;99.90;;;;;;5015261;28;20151;-56
2022/12/26 02:43:10;;;;;;;44.15;22.88;;;8.60;99.90;;;;;;5016409;28;20042;-57
2022/12/26 02:49:09;;;;;;;69.07;26.23;;;8.70;99.90;;;;;;5014708;28;20128;-56
2022/12/26 03:14:52;;;;;;;54.08;26.40;;;8.70;99.90;;;;;;5009399;28;20053;-55
2022/12/26 03:17:57;;;;;;;41.67;23.45;;;8.70;99.90;;;;;;4991237;28;20041;-57
2022/12/26 03:20:28;;;;;;;51.78;25.33;;;8.80;99.90;;;;;;4930078;29;20072;-56
2022/12/26 03:22:58;;;;;;;47.80;24.50;;;8.70;99.90;;;;;;4935508;29;20130;-55
2022/12/26 03:28:21;;;;;;;43.88;24.25;;;8.70;99.90;;;;;;4932522;29;20051;-57
2022/12/26 03:30:50;;;;;;;44.40;23.77;;;8.70;99.90;;;;;;4932257;29;20036;-55
2022/12/26 03:36:20;;;;;;;53.55;24.38;;;8.80;99.90;;;;;;4931517;29;20047;-56
2022/12/26 03:39:06;;;;;;;49.03;24.83;;;8.80;99.90;;;;;;4932109;29;20047;-57
2022/12/26 04:19:39;;;;;;;40.70;22.92;;;8.70;99.90;;;;;;4991082;28;20054;-55
2022/12/26 04:45:13;;;;;;;43.95;24.50;;;8.70;99.90;;;;;;5014112;28;20050;-54
2022/12/26 04:50:10;;;;;;;44.63;23.75;;;8.70;99.90;;;;;;4989299;28;20049;-54
2022/12/26 04:50:25;;;;;;;45.08;24.92;;;8.70;99.90;;;;;;5014289;28;20049;-55
2022/12/26 04:52:59;;;;;;;48.65;25.80;;;8.70;99.90;;;;;;5015808;28;20048;-55
2022/12/26 04:55:34;;;;;;;45.85;24.48;;;8.70;99.90;;;;;;4984058;28;20061;-57
2022/12/26 04:58:00;;;;;;;44.97;24.83;;;8.70;99.90;;;;;;4991935;28;20074;-56
2022/12/26 05:00:27;;;;;;;46.78;25.00;;;8.70;99.90;;;;;;4993469;28;20075;-56
2022/12/26 05:11:31;;;;;;;42.30;24.35;;;8.60;99.90;;;;;;4983306;28;20045;-56
2022/12/26 05:13:58;;;;;;;49.83;26.23;;;8.70;99.90;;;;;;5012763;28;20439;-55
2022/12/26 05:30:18;;;;;;;42.35;24.95;;;8.40;99.90;;;;;;4987447;28;20499;-56
2022/12/26 05:35:28;;;;;;;42.40;24.73;;;8.20;99.90;;;;;;5005628;28;20481;-57
2022/12/26 05:37:54;;;;;;;39.95;25.08;;;8.20;99.90;;;;;;5013294;28;20052;-54
2022/12/26 05:40:19;;;;;;;39.25;24.67;;;8.20;99.90;;;;;;5013534;28;20045;-56
2022/12/26 05:42:45;;;;;;;45.72;26.58;;;8.10;99.90;;;;;;5012642;28;20092;-57
2022/12/26 05:45:10;;;;;;;42.30;25.65;;;8.10;99.90;;;;;;5013090;28;20065;-57
2022/12/26 05:47:36;;;;;;;44.67;25.42;;;8.10;99.90;;;;;;5012555;28;20103;-56
2022/12/26 05:50:02;;;;;;;39.28;24.10;;;8.10;99.90;;;;;;5010927;28;20038;-55
2022/12/26 05:52:28;;;;;;;40.78;25.50;;;8.10;99.90;;;;;;5011400;28;20124;-57
2022/12/26 05:54:53;;;;;;;40.42;24.98;;;8.10;99.90;;;;;;5013043;28;20137;-55
2022/12/26 05:57:19;;;;;;;38.75;25.90;;;8.10;99.90;;;;;;5012533;28;20041;-56
2022/12/26 05:59:45;;;;;;;39.95;25.35;;;8.00;99.90;;;;;;5012893;28;20045;-56
2022/12/26 06:02:10;;;;;;;36.17;24.90;;;8.00;99.90;;;;;;5013074;28;20466;-56
2022/12/26 06:04:36;;;;;;;37.72;24.02;;;8.00;99.90;;;;;;5012035;28;20050;-56
2022/12/26 06:07:02;;;;;;;37.17;23.88;;;7.90;99.90;;;;;;5012115;28;20042;-56
2022/12/26 06:09:27;;;;;;;37.65;25.20;;;7.90;99.90;;;;;;5017020;28;20053;-57
2022/12/26 06:11:53;;;;;;;39.67;25.67;;;8.00;99.90;;;;;;4999378;28;20117;-56
2022/12/26 06:14:18;;;;;;;38.25;25.10;;;8.00;99.90;;;;;;4998613;28;20061;-56
2022/12/26 06:16:44;;;;;;;35.92;24.88;;;8.00;99.90;;;;;;5016762;28;20041;-56
2022/12/26 06:19:10;;;;;;;38.60;25.58;;;8.00;99.90;;;;;;5016989;28;20053;-55
2022/12/26 06:21:35;;;;;;;39.90;25.85;;;8.10;99.90;;;;;;5016471;28;20054;-55
2022/12/26 06:24:01;;;;;;;37.63;25.00;;;8.10;99.90;;;;;;4998488;28;20419;-57
2022/12/26 06:26:26;;;;;;;40.45;25.67;;;8.10;99.90;;;;;;5016008;28;20046;-56
2022/12/26 06:28:52;;;;;;;34.15;23.20;;;8.10;99.90;;;;;;5016121;28;20046;-56
2022/12/26 06:31:21;;;;;;;31.75;24.48;;;8.10;99.90;;;;;;5016725;28;20469;-57
2022/12/26 06:33:49;;;;;;;37.38;23.85;;;8.00;99.90;;;;;;5014849;28;20402;-57
2022/12/26 06:36:18;;;;;;;40.72;25.65;;;8.10;99.90;;;;;;5011183;28;20177;-57
2022/12/26 06:38:44;;;;;;;36.45;25.50;;;8.00;99.90;;;;;;5011160;28;20100;-56
2022/12/26 06:41:12;;;;;;;37.70;25.55;;;8.10;99.90;;;;;;5015539;28;20049;-55
2022/12/26 06:43:38;;;;;;;37.53;26.50;;;8.10;99.90;;;;;;5015991;28;20492;-57
2022/12/26 06:46:06;;;;;;;33.58;24.55;;;8.10;99.90;;;;;;5014551;28;20100;-56
2022/12/26 06:48:32;;;;;;;39.80;27.15;;;8.10;99.90;;;;;;5016152;28;20511;-57
2022/12/26 06:51:03;;;;;;;37.03;25.38;;;8.00;99.90;;;;;;5015777;28;20061;-56
2022/12/26 06:53:28;;;;;;;39.25;25.92;;;8.00;99.90;;;;;;5016233;28;20052;-56
2022/12/26 06:55:54;;;;;;;40.35;27.05;;;7.90;99.90;;;;;;5015468;28;20132;-56
2022/12/26 06:58:20;;;;;;;44.35;27.92;;;7.90;99.90;;;;;;4998404;28;20046;-57
2022/12/26 07:00:45;;;;;;;37.67;26.02;;;7.90;99.90;;;;;;5015066;28;20045;-55
2022/12/26 07:03:11;;;;;;;35.80;26.88;;;7.80;99.90;;;;;;5015691;28;20499;-56
2022/12/26 07:05:37;;;;;;;41.38;27.40;;;7.80;99.90;;;;;;5014976;28;20042;-57
2022/12/26 07:08:03;;;;;;;39.15;27.65;;;7.80;99.90;;;;;;5016270;28;20048;-56
2022/12/26 07:10:33;;;;;;;41.45;28.20;;;7.70;99.90;;;;;;5015361;28;20034;-56
2022/12/26 07:12:58;;;;;;;39.33;25.92;;;7.80;99.90;;;;;;5016128;28;20100;-57
2022/12/26 07:15:24;;;;;;;44.97;27.95;;;7.70;99.90;;;;;;5015096;28;20049;-56
2022/12/26 07:17:51;;;;;;;37.90;27.15;;;7.70;99.90;;;;;;5014844;28;20117;-56
2022/12/26 07:20:16;;;;;;;40.80;28.10;;;7.60;99.90;;;;;;5014954;28;20054;-56
2022/12/26 07:22:42;;;;;;;39.90;28.10;;;7.70;99.90;;;;;;5015713;28;20041;-57
2022/12/26 07:25:08;;;;;;;39.40;28.45;;;7.60;99.90;;;;;;5014579;28;20048;-55
2022/12/26 07:27:33;;;;;;;39.17;27.77;;;7.60;99.90;;;;;;5014964;28;20381;-56
2022/12/26 07:29:59;;;;;;;39.80;28.33;;;7.50;99.90;;;;;;4981870;28;20060;-56
2022/12/26 07:32:26;;;;;;;46.53;28.83;;;7.50;99.90;;;;;;5015463;28;20053;-56
2022/12/26 07:34:52;;;;;;;41.92;27.83;;;7.60;99.90;;;;;;4997154;28;20443;-53
2022/12/26 07:37:17;;;;;;;45.65;28.35;;;7.60;99.90;;;;;;5012662;28;20030;-56
2022/12/26 07:39:43;;;;;;;44.05;29.20;;;7.50;99.90;;;;;;5010425;28;20033;-57
2022/12/26 07:42:08;;;;;;;38.92;26.83;;;7.60;99.90;;;;;;5013259;28;20479;-55
2022/12/26 07:44:34;;;;;;;43.70;25.85;;;7.60;99.90;;;;;;5011432;28;20042;-54
2022/12/26 07:47:00;;;;;;;38.85;25.48;;;7.50;99.90;;;;;;5009958;28;20034;-53
2022/12/26 07:49:26;;;;;;;33.65;24.73;;;7.50;99.90;;;;;;5014360;28;20069;-53
2022/12/26 07:51:52;;;;;;;38.42;25.75;;;7.50;99.90;;;;;;5014884;28;20129;-54
2022/12/26 07:54:18;;;;;;;36.50;25.35;;;7.50;99.90;;;;;;5014861;28;20117;-54
2022/12/26 07:56:44;;;;;;;33.83;24.20;;;7.40;99.90;;;;;;5014502;28;20059;-56
2022/12/26 07:59:14;;;;;;;39.65;24.73;;;7.40;99.90;;;;;;5014486;28;20044;-56
2022/12/26 08:01:41;;;;;;;35.33;22.42;;;7.40;99.90;;;;;;5013594;28;20041;-56
2022/12/26 08:04:06;;;;;;;31.52;22.80;;;7.40;99.90;;;;;;5014027;28;20492;-56
2022/12/26 08:06:32;;;;;;;36.22;22.73;;;7.50;99.90;;;;;;5014119;28;20052;-55
2022/12/26 08:08:58;;;;;;;33.83;22.58;;;7.50;99.90;;;;;;5014554;28;20053;-54
2022/12/26 08:11:24;;;;;;;32.63;20.88;;;7.50;99.90;;;;;;5014943;28;20034;-54
2022/12/26 08:13:51;;;;;;;31.35;20.60;;;7.40;99.90;;;;;;5014718;28;20038;-55
2022/12/26 08:16:16;;;;;;;28.98;19.90;;;7.50;99.90;;;;;;5013359;28;20046;-56
2022/12/26 08:18:42;;;;;;;30.95;20.17;;;7.50;99.90;;;;;;4997035;28;20058;-56
2022/12/26 08:21:08;;;;;;;27.40;20.27;;;7.50;99.90;;;;;;5014423;28;20133;-56
2022/12/26 08:23:34;;;;;;;26.83;18.58;;;7.50;99.90;;;;;;5014147;28;20132;-55
2022/12/26 08:26:05;;;;;;;24.63;18.52;;;7.60;99.90;;;;;;5012778;28;20449;-54
2022/12/26 08:28:30;;;;;;;24.98;16.73;;;7.60;99.90;;;;;;5014536;28;20096;-55
2022/12/26 08:30:56;;;;;;;20.98;15.88;;;7.60;99.90;;;;;;5013500;28;20431;-55
2022/12/26 08:33:21;;;;;;;18.77;15.25;;;7.60;99.90;;;;;;5013918;28;20072;-55
2022/12/26 08:35:47;;;;;;;22.95;16.50;;;7.60;99.90;;;;;;5012984;28;20038;-56
2022/12/26 08:38:12;;;;;;;22.00;15.57;;;7.70;99.90;;;;;;5014171;28;20112;-56
2022/12/26 08:40:38;;;;;;;24.10;15.52;;;7.70;99.90;;;;;;5014542;28;20064;-56
2022/12/26 08:43:04;;;;;;;19.05;14.73;;;7.70;99.90;;;;;;5013778;28;20116;-55
2022/12/26 08:45:30;;;;;;;19.38;14.45;;;7.80;99.90;;;;;;4995119;28;20061;-56
2022/12/26 08:47:56;;;;;;;21.83;14.93;;;7.90;99.90;;;;;;5009838;28;20044;-56
2022/12/26 08:50:22;;;;;;;19.90;15.02;;;7.80;99.90;;;;;;5010279;28;20050;-52
2022/12/26 08:52:48;;;;;;;18.27;14.05;;;7.90;99.90;;;;;;5010075;28;20057;-56
2022/12/26 08:55:13;;;;;;;19.95;14.63;;;7.90;99.90;;;;;;5007825;28;20057;-55
2022/12/26 08:57:39;;;;;;;20.73;15.00;;;8.10;99.90;;;;;;5009855;28;20510;-56
2022/12/26 09:00:06;;;;;;;22.13;16.00;;;8.10;99.90;;;;;;4981996;28;20053;-57
2022/12/26 09:02:32;;;;;;;20.17;14.18;;;8.20;99.90;;;;;;5009969;28;20099;-56
2022/12/26 09:04:58;;;;;;;19.83;13.90;;;8.40;99.90;;;;;;5009362;28;20038;-55
2022/12/26 09:07:24;;;;;;;17.67;13.38;;;8.40;99.90;;;;;;5008857;28;20080;-55
2022/12/26 09:09:50;;;;;;;16.58;12.68;;;8.50;99.90;;;;;;4986967;28;20048;-54
2022/12/26 09:12:15;;;;;;;21.42;12.93;;;8.60;99.90;;;;;;5006332;28;20034;-57
2022/12/26 09:14:41;;;;;;;16.05;12.13;;;8.60;99.90;;;;;;5005724;28;20046;-55
2022/12/26 09:17:06;;;;;;;16.05;11.93;;;8.70;99.90;;;;;;4986621;28;20037;-57
2022/12/26 09:19:32;;;;;;;14.90;12.00;;;8.70;99.90;;;;;;4988064;28;20648;-55
2022/12/26 09:24:42;;;;;;;16.23;10.73;;;8.90;99.90;;;;;;5006264;28;20784;-56
2022/12/26 09:27:08;;;;;;;12.13;10.07;;;8.90;99.90;;;;;;4988729;28;20103;-57
2022/12/26 09:29:36;;;;;;;11.40;9.45;;;8.90;99.90;;;;;;5004784;28;20060;-55
2022/12/26 09:32:02;;;;;;;;;;;9.00;99.90;;;;;;5007233;28;20065;-56
2022/12/26 09:34:28;;;;;;;10.05;8.98;;;9.00;99.90;;;;;;5003291;28;20323;-55
2022/12/26 09:36:53;;;;;;;13.68;9.45;;;9.00;99.90;;;;;;4973408;28;20399;-54
2022/12/26 09:39:19;;;;;;;16.70;9.05;;;9.10;99.90;;;;;;4988735;28;20096;-56
2022/12/26 09:41:58;;;;;;;11.23;8.00;;;9.10;99.90;;;;;;5004915;28;20041;-55
2022/12/26 09:44:49;;;;;;;10.75;7.57;;;9.00;99.90;;;;;;5006121;28;20088;-55
2022/12/26 09:47:30;;;;;;;13.20;7.10;;;9.00;99.90;;;;;;5005401;28;20057;-57
2022/12/26 09:50:02;;;;;;;12.10;6.82;;;9.00;99.90;;;;;;5001625;28;20042;-56
2022/12/26 09:53:06;;;;;;;10.52;6.88;;;9.10;99.90;;;;;;5005632;28;20068;-53
2022/12/26 09:55:48;;;;;;;14.02;7.07;;;9.10;99.90;;;;;;4973638;28;20795;-53
2022/12/26 09:58:24;;;;;;;11.55;7.50;;;9.10;99.90;;;;;;5003560;28;20398;-51
2022/12/26 10:01:05;;;;;;;10.93;7.43;;;9.10;99.90;;;;;;5003837;28;20038;-53
2022/12/26 10:03:38;;;;;;;11.10;6.90;;;9.10;99.90;;;;;;5000325;28;20404;-52
2022/12/26 10:06:14;;;;;;;8.88;6.53;;;9.20;99.90;;;;;;4988956;28;20132;-56
2022/12/26 10:08:47;;;;;;;12.02;6.63;;;9.20;99.90;;;;;;4987706;28;20049;-54
2022/12/26 10:11:48;;;;;;;10.38;6.05;;;9.30;99.90;;;;;;4988390;28;20042;-55
2022/12/26 10:14:25;;;;;;;9.00;6.00;;;9.30;99.90;;;;;;4985952;28;20548;-55
2022/12/26 10:17:09;;;;;;;10.63;5.05;;;9.30;99.90;;;;;;5008267;28;20056;-55
2022/12/26 10:19:58;;;;;;;10.05;5.25;;;9.20;99.90;;;;;;4987255;28;20104;-56
2022/12/26 10:23:02;;;;;;;9.50;4.78;;;9.20;99.90;;;;;;5004879;28;20091;-55
2022/12/26 10:25:45;;;;;;;8.45;4.03;;;9.20;99.90;;;;;;5001540;28;20042;-55
2022/12/26 10:28:32;;;;;;;12.02;4.30;;;9.20;99.90;;;;;;4984024;28;20124;-55
2022/12/26 10:31:03;;;;;;;12.27;3.17;;;9.10;99.90;;;;;;5003017;28;20038;-56
2022/12/26 10:33:52;;;;;;;10.18;2.58;;;9.10;99.90;;;;;;5003776;28;20331;-56
2022/12/26 10:36:31;;;;;;;14.57;2.55;;;8.80;99.90;;;;;;5002626;28;20061;-53
2022/12/26 10:38:59;;;;;;;11.82;2.90;;;8.60;99.90;;;;;;5002242;28;20045;-56
2022/12/26 10:41:41;;;;;;;13.52;3.03;;;8.60;99.90;;;;;;5003881;28;20050;-52
2022/12/26 10:44:11;;;;;;;12.18;2.78;;;8.50;99.90;;;;;;5002795;28;20038;-54
2022/12/26 10:46:52;;;;;;;14.45;2.47;;;8.40;99.90;;;;;;5002725;28;20049;-56
2022/12/26 10:49:21;;;;;;;11.23;2.22;;;8.40;99.90;;;;;;5002912;28;20100;-54
2022/12/26 10:51:48;;;;;;;13.60;2.28;;;8.30;99.90;;;;;;5001056;28;21592;-55
2022/12/26 10:54:17;;;;;;;12.68;2.10;;;8.10;99.90;;;;;;5001440;28;20030;-53
2022/12/26 10:56:45;;;;;;;11.48;1.75;;;8.00;99.90;;;;;;4969164;28;20093;-51
2022/12/26 10:59:28;;;;;;;8.52;1.83;;;8.10;99.90;;;;;;5006338;28;20055;-55
2022/12/26 11:01:53;;;;;;;10.90;1.85;;;8.10;99.90;;;;;;4993889;28;20041;-51
2022/12/26 11:04:22;;;;;;;11.77;1.65;;;8.20;99.90;;;;;;5006287;28;20049;-53
2022/12/26 11:06:51;;;;;;;10.52;1.77;;;8.30;99.90;;;;;;5001331;28;20046;-51
2022/12/26 11:09:25;;;;;;;10.88;2.10;;;8.30;99.90;;;;;;4993806;28;20050;-55
2022/12/26 11:11:53;;;;;;;11.18;2.22;;;8.40;99.90;;;;;;5003692;28;20096;-51
2022/12/26 11:14:39;;;;;;;11.18;1.80;;;8.30;99.90;;;;;;4992428;28;20480;-51
2022/12/26 11:17:12;;;;;;;8.98;1.70;;;8.40;99.90;;;;;;4992696;28;20152;-56
2022/12/26 11:19:41;;;;;;;15.38;2.47;;;8.40;99.90;;;;;;5008826;28;20038;-54
2022/12/26 11:22:20;;;;;;;8.63;1.58;;;8.40;99.90;;;;;;5006833;28;20041;-56
2022/12/26 11:25:00;;;;;;;8.07;1.20;;;8.30;99.90;;;;;;5006298;28;20042;-54
2022/12/26 11:27:26;;;;;;;10.23;1.65;;;8.30;99.90;;;;;;5010395;28;20089;-52
2022/12/26 11:30:27;;;;;;;10.95;1.58;;;8.20;99.90;;;;;;4988621;28;20459;-55
2022/12/26 11:33:28;;;;;;;6.93;1.15;;;8.10;99.90;;;;;;5007647;28;20137;-53
2022/12/26 11:35:58;;;;;;;6.40;1.38;;;7.90;99.90;;;;;;5005782;28;20100;-55
2022/12/26 11:38:35;;;;;;;9.15;1.40;;;7.90;99.90;;;;;;5007159;28;20096;-51
2022/12/26 11:44:00;;;;;;;6.82;1.20;;;7.80;99.90;;;;;;5006284;28;20058;-55
2022/12/26 11:46:37;;;;;;;6.25;1.35;;;7.70;99.90;;;;;;5008106;28;20049;-55
2022/12/26 11:49:04;;;;;;;4.85;1.00;;;7.80;99.90;;;;;;5006806;28;20447;-55
2022/12/26 11:51:40;;;;;;;11.60;1.42;;;7.80;99.90;;;;;;5006502;28;20042;-55
2022/12/26 11:54:15;;;;;;;4.63;1.10;;;7.80;99.90;;;;;;5004383;28;20492;-55
2022/12/26 11:56:40;;;;;;;9.07;1.10;;;7.80;99.90;;;;;;5005359;28;20038;-56
2022/12/26 11:59:17;;;;;;;5.80;1.42;;;7.80;99.90;;;;;;5006200;28;20034;-55
2022/12/26 12:01:43;;;;;;;8.75;1.35;;;7.80;99.90;;;;;;4987328;28;20121;-55
2022/12/26 12:04:09;;;;;;;9.55;1.33;;;7.70;99.90;;;;;;4968422;28;20121;-55
2022/12/26 12:06:37;;;;;;;7.43;1.27;;;7.80;99.90;;;;;;4987397;28;20046;-56
2022/12/26 12:09:18;;;;;;;11.25;1.88;;;7.80;99.90;;;;;;5000949;28;20046;-55
2022/12/26 12:12:21;;;;;;;9.68;1.48;;;7.70;99.90;;;;;;5006130;28;20044;-56
2022/12/26 12:15:17;;;;;;;8.77;1.48;;;7.70;99.90;;;;;;5001985;28;20081;-53
2022/12/26 12:18:00;;;;;;;10.30;1.80;;;7.70;99.90;;;;;;4999074;28;20050;-51
2022/12/26 12:20:52;;;;;;;9.57;1.63;;;7.70;99.90;;;;;;5009482;28;20500;-51
2022/12/26 12:23:30;;;;;;;10.48;1.60;;;7.70;99.90;;;;;;5005697;28;20084;-52
2022/12/26 12:26:14;;;;;;;10.23;2.13;;;;;;;;;;4991383;28;20042;-56
2022/12/26 12:28:55;;;;;;;9.70;2.08;;;7.60;99.90;;;;;;5003963;28;20395;-56
2022/12/26 12:31:34;;;;;;;14.80;2.25;;;7.60;99.90;;;;;;5004809;28;20038;-53
2022/12/26 12:34:30;;;;;;;8.30;1.58;;;7.50;99.90;;;;;;5004517;28;20240;-57
2022/12/26 12:37:04;;;;;;;10.45;2.10;;;7.50;99.90;;;;;;4987208;28;20056;-53
2022/12/26 12:39:41;;;;;;;10.23;2.03;;;7.40;99.90;;;;;;5004493;28;20046;-55
2022/12/26 12:42:06;;;;;;;14.32;2.10;;;7.30;99.90;;;;;;5005422;28;20045;-55
2022/12/26 12:44:57;;;;;;;11.73;2.22;;;7.30;99.90;;;;;;5005633;28;20396;-55
2022/12/26 12:47:34;;;;;;;15.98;2.72;;;7.30;99.90;;;;;;5005720;28;20100;-54
2022/12/26 12:50:30;;;;;;;16.17;3.22;;;7.20;99.90;;;;;;5011471;28;20123;-55
2022/12/26 12:53:31;;;;;;;24.50;3.78;;;7.10;99.90;;;;;;5009646;28;20053;-54
2022/12/26 12:56:30;;;;;;;15.65;3.90;;;7.00;99.90;;;;;;5009136;28;20054;-55
2022/12/26 12:59:33;;;;;;;16.95;4.32;;;7.00;99.90;;;;;;4925124;29;20051;-55
2022/12/26 13:02:03;;;;;;;21.85;4.60;;;6.90;99.90;;;;;;4926855;29;20044;-55
2022/12/26 13:04:35;;;;;;;19.50;4.70;;;6.90;99.90;;;;;;4929412;29;20533;-52
2022/12/26 13:07:10;;;;;;;17.83;4.05;;;6.90;99.90;;;;;;4927944;29;20059;-55
2022/12/26 13:09:45;;;;;;;21.65;5.10;;;6.90;99.90;;;;;;4923995;29;20517;-54
2022/12/26 13:12:19;;;;;;;19.48;5.53;;;6.80;99.90;;;;;;4923733;29;20039;-54
2022/12/26 13:15:16;;;;;;;14.30;5.10;;;6.80;99.90;;;;;;4923158;29;20107;-52
2022/12/26 13:17:51;;;;;;;19.02;5.97;;;6.70;99.90;;;;;;4922988;29;20090;-51
2022/12/26 13:20:33;;;;;;;18.23;5.55;;;6.70;99.90;;;;;;4927307;29;20052;-55
2022/12/26 13:26:10;;;;;;;17.67;4.40;;;6.70;99.90;;;;;;4927347;29;21138;-53
2022/12/26 13:28:57;;;;;;;14.20;3.90;;;6.70;99.90;;;;;;4924740;29;20418;-52
2022/12/26 13:31:23;;;;;;;15.75;2.60;;;6.60;99.90;;;;;;4928042;29;20474;-52
2022/12/26 13:33:49;;;;;;;13.45;2.97;;;6.60;99.90;;;;;;4912561;29;20050;-53
2022/12/26 13:36:36;;;;;;;13.30;2.85;;;6.50;99.90;;;;;;4977626;28;20146;-54
2022/12/26 13:39:11;;;;;;;;;;;6.40;99.90;;;;;;5006595;28;20037;-54
2022/12/26 13:44:31;;;;;;;10.98;2.35;;;6.30;99.90;;;;;;4989862;28;20053;-54
2022/12/26 13:46:58;;;;;;;16.60;3.17;;;6.30;99.90;;;;;;4999589;28;20046;-56
2022/12/26 13:49:27;;;;;;;13.52;2.72;;;6.30;99.90;;;;;;5003478;28;20053;-56
2022/12/26 13:52:13;;;;;;;13.20;2.33;;;6.20;99.90;;;;;;4994890;28;20046;-53
2022/12/26 13:54:51;;;;;;;17.48;2.85;;;6.20;99.90;;;;;;5002256;28;20050;-55
2022/12/26 13:57:44;;;;;;;11.00;2.00;;;6.10;99.90;;;;;;5008366;28;20560;-55
2022/12/26 14:00:16;;;;;;;14.02;2.50;;;6.10;99.90;;;;;;5010321;28;20052;-51
2022/12/26 14:05:55;;;;;;;14.55;2.35;;;6.20;99.90;;;;;;4668164;22;20127;-53
2022/12/26 14:08:39;;;;;;;12.35;2.30;;;6.20;99.90;;;;;;4968646;28;20046;-54
2022/12/26 14:11:33;;;;;;;14.10;2.00;;;6.10;99.90;;;;;;4966507;28;20042;-55
2022/12/26 14:14:18;;;;;;;17.23;2.45;;;6.10;99.90;;;;;;4966813;28;20185;-54
2022/12/26 14:17:13;;;;;;;14.38;2.67;;;6.10;99.90;;;;;;4971539;28;20047;-53
2022/12/26 14:19:50;;;;;;;12.40;2.50;;;6.00;99.90;;;;;;4966915;28;20047;-56
2022/12/26 14:22:34;;;;;;;11.35;2.10;;;6.00;99.90;;;;;;4964800;28;20421;-54
2022/12/26 14:25:12;;;;;;;12.48;2.35;;;5.90;99.90;;;;;;4966500;28;20420;-55
2022/12/26 14:27:50;;;;;;;14.67;2.20;;;;;;;;;;4968672;28;20416;-55
2022/12/26 14:30:22;;;;;;;14.95;2.58;;;;;;;;;;4969373;28;20357;-55
2022/12/26 14:33:07;;;;;;;15.45;2.40;;;;;;;;;;4955837;28;20078;-55
2022/12/26 14:35:37;;;;;;;14.50;2.42;;;;;;;;;;4970852;28;20038;-55
2022/12/26 14:38:21;;;;;;;10.98;1.85;;;;;;;;;;4952806;28;20502;-53
2022/12/26 14:41:01;;;;;;;8.98;2.20;;;;;;;;;;4973797;28;20090;-51
2022/12/26 14:43:28;;;;;;;8.40;2.03;;;;;;;;;;4967203;28;20074;-55
2022/12/26 14:45:56;;;;;;;13.88;2.28;;;;;;;;;;4958913;28;20481;-55
2022/12/26 14:48:21;;;;;;;;;;;5.50;99.90;;;;;;4969582;28;20050;-54
2022/12/26 14:51:02;;;;;;;16.40;2.20;;;5.40;99.90;;;;;;4971195;28;20020;-55
2022/12/26 14:53:33;;;;;;;14.15;2.20;;;5.40;99.90;;;;;;4967332;28;20042;-56
2022/12/26 14:56:09;;;;;;;14.88;1.90;;;5.30;99.90;;;;;;4966683;28;20532;-54
2022/12/26 14:58:45;;;;;;;11.40;2.20;;;5.30;99.90;;;;;;4971064;28;20093;-55
2022/12/26 15:01:17;;;;;;;9.63;1.83;;;5.30;99.90;;;;;;4957512;28;20043;-55
2022/12/26 15:04:04;;;;;;;8.77;2.00;;;5.30;99.90;;;;;;4967984;28;20258;-54
2022/12/26 15:06:45;;;;;;;9.70;2.10;;;5.30;99.90;;;;;;4931669;29;20044;-54
2022/12/26 15:09:45;;;;;;;16.27;2.30;;;5.20;99.90;;;;;;4931771;29;20809;-52
2022/12/26 15:12:48;;;;;;;10.15;1.55;;;5.20;99.90;;;;;;4881203;29;20052;-54
2022/12/26 15:15:29;;;;;;;7.85;1.77;;;5.10;99.90;;;;;;4889250;29;20075;-55
2022/12/26 15:18:29;;;;;;;12.18;1.98;;;5.20;99.90;;;;;;4875195;29;20044;-52
2022/12/26 15:21:27;;;;;;;13.13;2.35;;;5.10;99.90;;;;;;4869845;29;20044;-54
2022/12/26 15:24:14;;;;;;;13.80;2.03;;;5.10;99.90;;;;;;4880639;29;20059;-56
2022/12/26 15:27:24;;;;;;;11.93;2.22;;;5.00;99.90;;;;;;4894466;29;20415;-55
2022/12/26 15:30:09;;;;;;;16.08;1.90;;;;;;;;;;4885220;29;20063;-55
2022/12/26 15:32:53;;;;;;;10.27;1.83;;;4.90;99.90;;;;;;4865182;29;20060;-55